sensor_id;sensor_type;location;lat;lon;timestamp;temperature;humidity
31391;DHT22;18022;45.492;11.548;2023-07-20T00:00:49;23.50;99.90
31391;DHT22;18022;45.492;11.548;2023-07-20T00:03:19;23.40;99.90
31391;DHT22;18022;45.492;11.548;2023-07-20T00:05:49;23.40;99.90
31391;DHT22;18022;45.492;11.548;2023-07-20T00:08:16;23.30;99.90
31391;DHT22;18022;45.492;11.548;2023-07-20T00:10:42;23.40;99.90
31391;DHT22;18022;45.492;11.548;2023-07-20T00:13:08;23.40;99.90
31391;DHT22;18022;45.492;11.548;2023-07-20T00:15:34;23.40;99.90
31391;DHT22;18022;45.492;11.548;2023-07-20T00:17:59;23.40;99.90
31391;DHT22;18022;45.492;11.548;2023-07-20T00:20:25;23.50;99.90
31391;DHT22;18022;45.492;11.548;2023-07-20T00:22:51;23.40;99.90
31391;DHT22;18022;45.492;11.548;2023-07-20T00:25:17;23.40;99.90
31391;DHT22;18022;45.492;11.548;2023-07-20T00:27:43;23.50;99.90
31391;DHT22;18022;45.492;11.548;2023-07-20T00:30:10;23.60;99.90
31391;DHT22;18022;45.492;11.548;2023-07-20T00:32:36;23.70;99.90
31391;DHT22;18022;45.492;11.548;2023-07-20T00:35:01;23.70;99.90
31391;DHT22;18022;45.492;11.548;2023-07-20T00:37:27;23.60;99.90
31391;DHT22;18022;45.492;11.548;2023-07-20T00:39:53;23.70;99.90
31391;DHT22;18022;45.492;11.548;2023-07-20T00:42:19;23.60;99.90
31391;DHT22;18022;45.492;11.548;2023-07-20T00:44:44;23.50;99.90
31391;DHT22;18022;45.492;11.548;2023-07-20T00:47:10;23.40;99.90
31391;DHT22;18022;45.492;11.548;2023-07-20T00:49:37;23.30;99.90
31391;DHT22;18022;45.492;11.548;2023-07-20T00:52:03;23.40;99.90
31391;DHT22;18022;45.492;11.548;2023-07-20T00:54:32;23.50;99.90
31391;DHT22;18022;45.492;11.548;2023-07-20T00:56:58;23.50;99.90
31391;DHT22;18022;45.492;11.548;2023-07-20T00:59:26;23.50;99.90
31391;DHT22;18022;45.492;11.548;2023-07-20T01:01:52;23.50;99.90
31391;DHT22;18022;45.492;11.548;2023-07-20T01:04:18;23.60;99.90
31391;DHT22;18022;45.492;11.548;2023-07-20T01:14:30;23.40;99.90
31391;DHT22;18022;45.492;11.548;2023-07-20T01:16:57;23.40;99.90
31391;DHT22;18022;45.492;11.548;2023-07-20T01:19:22;23.60;99.90
31391;DHT22;18022;45.492;11.548;2023-07-20T01:22:17;23.60;99.90
31391;DHT22;18022;45.492;11.548;2023-07-20T01:33:16;23.40;99.90
31391;DHT22;18022;45.492;11.548;2023-07-20T01:35:43;23.60;99.90
31391;DHT22;18022;45.492;11.548;2023-07-20T01:38:10;23.60;99.90
31391;DHT22;18022;45.492;11.548;2023-07-20T01:40:37;23.60;99.90
31391;DHT22;18022;45.492;11.548;2023-07-20T01:43:03;23.60;99.90
31391;DHT22;18022;45.492;11.548;2023-07-20T01:45:29;23.60;99.90
31391;DHT22;18022;45.492;11.548;2023-07-20T01:47:55;23.50;99.90
31391;DHT22;18022;45.492;11.548;2023-07-20T01:50:21;23.60;99.90
31391;DHT22;18022;45.492;11.548;2023-07-20T01:52:46;23.60;99.90
31391;DHT22;18022;45.492;11.548;2023-07-20T01:55:12;23.60;99.90
31391;DHT22;18022;45.492;11.548;2023-07-20T01:57:38;23.40;99.90
31391;DHT22;18022;45.492;11.548;2023-07-20T02:00:04;23.30;99.90
31391;DHT22;18022;45.492;11.548;2023-07-20T02:02:29;23.20;99.90
31391;DHT22;18022;45.492;11.548;2023-07-20T02:04:55;23.30;99.90
31391;DHT22;18022;45.492;11.548;2023-07-20T02:07:21;23.40;99.90
31391;DHT22;18022;45.492;11.548;2023-07-20T02:09:47;23.40;99.90
31391;DHT22;18022;45.492;11.548;2023-07-20T02:12:12;23.40;99.90
31391;DHT22;18022;45.492;11.548;2023-07-20T02:14:38;23.40;99.90
31391;DHT22;18022;45.492;11.548;2023-07-20T02:17:04;23.20;99.90
31391;DHT22;18022;45.492;11.548;2023-07-20T02:19:30;23.20;99.90
31391;DHT22;18022;45.492;11.548;2023-07-20T02:21:56;23.30;99.90
31391;DHT22;18022;45.492;11.548;2023-07-20T02:24:22;23.40;99.90
31391;DHT22;18022;45.492;11.548;2023-07-20T02:26:48;23.20;99.90
31391;DHT22;18022;45.492;11.548;2023-07-20T02:29:14;23.20;99.90
31391;DHT22;18022;45.492;11.548;2023-07-20T02:31:39;23.20;99.90
31391;DHT22;18022;45.492;11.548;2023-07-20T02:34:06;23.20;99.90
31391;DHT22;18022;45.492;11.548;2023-07-20T02:36:32;23.20;99.90
31391;DHT22;18022;45.492;11.548;2023-07-20T02:39:00;23.30;99.90
31391;DHT22;18022;45.492;11.548;2023-07-20T02:41:30;23.30;99.90
31391;DHT22;18022;45.492;11.548;2023-07-20T02:43:56;23.20;99.90
31391;DHT22;18022;45.492;11.548;2023-07-20T02:46:22;23.20;99.90
31391;DHT22;18022;45.492;11.548;2023-07-20T02:48:48;23.30;99.90
31391;DHT22;18022;45.492;11.548;2023-07-20T02:51:13;23.30;99.90
31391;DHT22;18022;45.492;11.548;2023-07-20T02:53:39;23.20;99.90
31391;DHT22;18022;45.492;11.548;2023-07-20T02:56:05;23.30;99.90
31391;DHT22;18022;45.492;11.548;2023-07-20T02:58:30;23.40;99.90
31391;DHT22;18022;45.492;11.548;2023-07-20T03:00:56;23.40;99.90
31391;DHT22;18022;45.492;11.548;2023-07-20T03:03:22;23.20;99.90
31391;DHT22;18022;45.492;11.548;2023-07-20T03:05:47;23.00;99.90
31391;DHT22;18022;45.492;11.548;2023-07-20T03:08:19;22.90;99.90
31391;DHT22;18022;45.492;11.548;2023-07-20T03:10:45;22.90;99.90
31391;DHT22;18022;45.492;11.548;2023-07-20T03:13:11;22.80;99.90
31391;DHT22;18022;45.492;11.548;2023-07-20T03:15:38;22.80;99.90
31391;DHT22;18022;45.492;11.548;2023-07-20T03:18:03;22.80;99.90
31391;DHT22;18022;45.492;11.548;2023-07-20T03:20:30;22.70;99.90
31391;DHT22;18022;45.492;11.548;2023-07-20T03:22:56;22.70;99.90
31391;DHT22;18022;45.492;11.548;2023-07-20T03:25:22;22.70;99.90
31391;DHT22;18022;45.492;11.548;2023-07-20T03:27:48;22.70;99.90
31391;DHT22;18022;45.492;11.548;2023-07-20T03:30:14;22.70;99.90
31391;DHT22;18022;45.492;11.548;2023-07-20T03:32:40;22.70;99.90
31391;DHT22;18022;45.492;11.548;2023-07-20T03:35:06;22.60;99.90
31391;DHT22;18022;45.492;11.548;2023-07-20T03:37:31;22.60;99.90
31391;DHT22;18022;45.492;11.548;2023-07-20T03:39:57;22.50;99.90
31391;DHT22;18022;45.492;11.548;2023-07-20T03:42:23;22.50;99.90
31391;DHT22;18022;45.492;11.548;2023-07-20T03:44:49;22.50;99.90
31391;DHT22;18022;45.492;11.548;2023-07-20T03:47:16;22.40;99.90
31391;DHT22;18022;45.492;11.548;2023-07-20T03:49:41;22.40;99.90
31391;DHT22;18022;45.492;11.548;2023-07-20T03:52:07;22.40;99.90
31391;DHT22;18022;45.492;11.548;2023-07-20T03:54:33;22.40;99.90
31391;DHT22;18022;45.492;11.548;2023-07-20T03:56:58;22.50;99.90
31391;DHT22;18022;45.492;11.548;2023-07-20T03:59:24;22.50;99.90
31391;DHT22;18022;45.492;11.548;2023-07-20T04:01:50;22.40;99.90
31391;DHT22;18022;45.492;11.548;2023-07-20T04:04:16;22.40;99.90
31391;DHT22;18022;45.492;11.548;2023-07-20T04:06:42;22.40;99.90
31391;DHT22;18022;45.492;11.548;2023-07-20T04:09:12;22.50;99.90
31391;DHT22;18022;45.492;11.548;2023-07-20T04:11:38;22.40;99.90
31391;DHT22;18022;45.492;11.548;2023-07-20T04:14:04;22.40;99.90
31391;DHT22;18022;45.492;11.548;2023-07-20T04:16:30;22.40;99.90
31391;DHT22;18022;45.492;11.548;2023-07-20T04:18:56;22.30;99.90
31391;DHT22;18022;45.492;11.548;2023-07-20T04:21:22;22.30;99.90
31391;DHT22;18022;45.492;11.548;2023-07-20T04:23:48;22.40;99.90
31391;DHT22;18022;45.492;11.548;2023-07-20T04:26:13;22.40;99.90
31391;DHT22;18022;45.492;11.548;2023-07-20T04:28:40;22.40;99.90
31391;DHT22;18022;45.492;11.548;2023-07-20T04:31:15;22.40;99.90
31391;DHT22;18022;45.492;11.548;2023-07-20T04:33:41;22.50;99.90
31391;DHT22;18022;45.492;11.548;2023-07-20T04:36:07;22.40;99.90
31391;DHT22;18022;45.492;11.548;2023-07-20T04:38:33;22.40;99.90
31391;DHT22;18022;45.492;11.548;2023-07-20T04:40:59;22.40;99.90
31391;DHT22;18022;45.492;11.548;2023-07-20T04:43:25;22.40;99.90
31391;DHT22;18022;45.492;11.548;2023-07-20T04:45:51;22.40;99.90
31391;DHT22;18022;45.492;11.548;2023-07-20T04:48:17;22.50;99.90
31391;DHT22;18022;45.492;11.548;2023-07-20T04:50:44;22.50;99.90
31391;DHT22;18022;45.492;11.548;2023-07-20T04:53:11;22.60;99.90
31391;DHT22;18022;45.492;11.548;2023-07-20T04:55:40;22.60;99.90
31391;DHT22;18022;45.492;11.548;2023-07-20T04:58:06;22.60;99.90
31391;DHT22;18022;45.492;11.548;2023-07-20T05:00:33;22.60;99.90
31391;DHT22;18022;45.492;11.548;2023-07-20T05:02:59;22.60;99.90
31391;DHT22;18022;45.492;11.548;2023-07-20T05:05:25;22.60;99.90
31391;DHT22;18022;45.492;11.548;2023-07-20T05:07:50;22.70;99.90
31391;DHT22;18022;45.492;11.548;2023-07-20T05:10:17;22.70;99.90
31391;DHT22;18022;45.492;11.548;2023-07-20T05:12:43;22.70;99.90
31391;DHT22;18022;45.492;11.548;2023-07-20T05:15:09;22.80;99.90
31391;DHT22;18022;45.492;11.548;2023-07-20T05:17:35;22.80;99.90
31391;DHT22;18022;45.492;11.548;2023-07-20T05:20:00;22.90;99.90
31391;DHT22;18022;45.492;11.548;2023-07-20T05:22:26;22.90;99.90
31391;DHT22;18022;45.492;11.548;2023-07-20T05:24:52;22.90;99.90
31391;DHT22;18022;45.492;11.548;2023-07-20T05:27:17;23.00;99.90
31391;DHT22;18022;45.492;11.548;2023-07-20T05:29:44;23.10;99.90
31391;DHT22;18022;45.492;11.548;2023-07-20T05:32:10;23.20;99.90
31391;DHT22;18022;45.492;11.548;2023-07-20T05:34:36;23.30;99.90
31391;DHT22;18022;45.492;11.548;2023-07-20T05:37:01;23.30;99.90
31391;DHT22;18022;45.492;11.548;2023-07-20T05:39:27;23.40;99.90
31391;DHT22;18022;45.492;11.548;2023-07-20T05:41:53;23.50;99.90
31391;DHT22;18022;45.492;11.548;2023-07-20T05:44:18;23.60;99.90
31391;DHT22;18022;45.492;11.548;2023-07-20T05:46:44;23.60;99.90
31391;DHT22;18022;45.492;11.548;2023-07-20T05:49:10;23.60;99.90
31391;DHT22;18022;45.492;11.548;2023-07-20T05:51:35;23.70;99.90
31391;DHT22;18022;45.492;11.548;2023-07-20T05:54:01;23.70;99.90
31391;DHT22;18022;45.492;11.548;2023-07-20T05:56:27;23.80;99.90
31391;DHT22;18022;45.492;11.548;2023-07-20T05:58:53;23.90;99.90
31391;DHT22;18022;45.492;11.548;2023-07-20T06:01:18;23.90;99.90
31391;DHT22;18022;45.492;11.548;2023-07-20T06:03:44;23.90;99.90
31391;DHT22;18022;45.492;11.548;2023-07-20T06:06:10;23.90;99.90
31391;DHT22;18022;45.492;11.548;2023-07-20T06:08:38;24.00;99.90
31391;DHT22;18022;45.492;11.548;2023-07-20T06:11:03;24.00;99.90
31391;DHT22;18022;45.492;11.548;2023-07-20T06:13:29;24.10;99.90
31391;DHT22;18022;45.492;11.548;2023-07-20T06:15:55;24.20;99.90
31391;DHT22;18022;45.492;11.548;2023-07-20T06:18:22;24.20;99.90
31391;DHT22;18022;45.492;11.548;2023-07-20T06:20:49;24.20;99.90
31391;DHT22;18022;45.492;11.548;2023-07-20T06:23:14;24.20;99.90
31391;DHT22;18022;45.492;11.548;2023-07-20T06:25:40;24.20;99.90
31391;DHT22;18022;45.492;11.548;2023-07-20T06:28:06;24.30;99.90
31391;DHT22;18022;45.492;11.548;2023-07-20T06:30:34;24.40;99.90
31391;DHT22;18022;45.492;11.548;2023-07-20T06:33:00;24.50;99.90
31391;DHT22;18022;45.492;11.548;2023-07-20T06:35:26;24.60;99.90
31391;DHT22;18022;45.492;11.548;2023-07-20T06:37:52;24.60;99.90
31391;DHT22;18022;45.492;11.548;2023-07-20T06:40:18;24.70;99.90
31391;DHT22;18022;45.492;11.548;2023-07-20T06:42:44;24.90;99.90
31391;DHT22;18022;45.492;11.548;2023-07-20T06:45:10;25.00;99.90
31391;DHT22;18022;45.492;11.548;2023-07-20T06:47:38;25.10;99.90
31391;DHT22;18022;45.492;11.548;2023-07-20T06:50:06;25.20;99.90
31391;DHT22;18022;45.492;11.548;2023-07-20T06:52:32;25.20;99.90
31391;DHT22;18022;45.492;11.548;2023-07-20T06:54:58;25.30;99.90
31391;DHT22;18022;45.492;11.548;2023-07-20T06:57:24;25.40;99.90
31391;DHT22;18022;45.492;11.548;2023-07-20T06:59:50;25.40;99.90
31391;DHT22;18022;45.492;11.548;2023-07-20T07:02:15;25.40;99.90
31391;DHT22;18022;45.492;11.548;2023-07-20T07:04:42;25.50;99.90
31391;DHT22;18022;45.492;11.548;2023-07-20T07:07:08;25.60;99.90
31391;DHT22;18022;45.492;11.548;2023-07-20T07:09:34;25.70;99.90
31391;DHT22;18022;45.492;11.548;2023-07-20T07:12:00;25.80;99.90
31391;DHT22;18022;45.492;11.548;2023-07-20T07:14:26;25.80;99.90
31391;DHT22;18022;45.492;11.548;2023-07-20T07:16:52;25.90;99.90
31391;DHT22;18022;45.492;11.548;2023-07-20T07:19:18;25.90;99.90
31391;DHT22;18022;45.492;11.548;2023-07-20T07:21:43;25.90;99.90
31391;DHT22;18022;45.492;11.548;2023-07-20T07:24:09;25.90;99.90
31391;DHT22;18022;45.492;11.548;2023-07-20T07:26:36;25.90;99.90
31391;DHT22;18022;45.492;11.548;2023-07-20T07:29:02;25.90;99.90
31391;DHT22;18022;45.492;11.548;2023-07-20T07:31:29;26.10;99.90
31391;DHT22;18022;45.492;11.548;2023-07-20T07:33:56;26.20;99.90
31391;DHT22;18022;45.492;11.548;2023-07-20T07:36:22;26.30;99.90
31391;DHT22;18022;45.492;11.548;2023-07-20T07:38:49;26.20;99.90
31391;DHT22;18022;45.492;11.548;2023-07-20T07:41:16;26.40;99.90
31391;DHT22;18022;45.492;11.548;2023-07-20T07:43:42;26.40;99.90
31391;DHT22;18022;45.492;11.548;2023-07-20T07:46:08;26.50;99.90
31391;DHT22;18022;45.492;11.548;2023-07-20T07:48:34;26.50;99.90
31391;DHT22;18022;45.492;11.548;2023-07-20T07:51:00;26.50;99.90
31391;DHT22;18022;45.492;11.548;2023-07-20T07:53:25;26.50;99.90
31391;DHT22;18022;45.492;11.548;2023-07-20T07:55:52;26.60;99.90
31391;DHT22;18022;45.492;11.548;2023-07-20T07:58:18;26.80;99.90
31391;DHT22;18022;45.492;11.548;2023-07-20T08:00:44;26.80;99.90
31391;DHT22;18022;45.492;11.548;2023-07-20T08:03:10;26.80;99.90
31391;DHT22;18022;45.492;11.548;2023-07-20T08:05:36;26.80;99.90
31391;DHT22;18022;45.492;11.548;2023-07-20T08:08:02;26.80;99.90
31391;DHT22;18022;45.492;11.548;2023-07-20T08:10:29;26.90;99.90
31391;DHT22;18022;45.492;11.548;2023-07-20T08:12:55;27.00;99.90
31391;DHT22;18022;45.492;11.548;2023-07-20T08:15:20;27.00;99.90
31391;DHT22;18022;45.492;11.548;2023-07-20T08:17:46;27.00;99.90
31391;DHT22;18022;45.492;11.548;2023-07-20T08:20:14;27.10;99.90
31391;DHT22;18022;45.492;11.548;2023-07-20T08:22:41;27.20;99.90
31391;DHT22;18022;45.492;11.548;2023-07-20T08:25:08;27.20;99.90
31391;DHT22;18022;45.492;11.548;2023-07-20T08:27:34;27.20;99.90
31391;DHT22;18022;45.492;11.548;2023-07-20T08:30:00;27.30;99.90
31391;DHT22;18022;45.492;11.548;2023-07-20T08:32:26;27.40;99.90
31391;DHT22;18022;45.492;11.548;2023-07-20T08:34:52;27.30;99.90
31391;DHT22;18022;45.492;11.548;2023-07-20T08:37:18;27.10;99.90
31391;DHT22;18022;45.492;11.548;2023-07-20T08:39:44;27.20;99.90
31391;DHT22;18022;45.492;11.548;2023-07-20T08:42:09;27.20;99.90
31391;DHT22;18022;45.492;11.548;2023-07-20T08:44:37;27.20;99.90
31391;DHT22;18022;45.492;11.548;2023-07-20T08:47:04;27.30;99.90
31391;DHT22;18022;45.492;11.548;2023-07-20T08:49:35;27.50;99.90
31391;DHT22;18022;45.492;11.548;2023-07-20T08:52:00;27.70;99.90
31391;DHT22;18022;45.492;11.548;2023-07-20T08:54:30;27.80;99.90
31391;DHT22;18022;45.492;11.548;2023-07-20T08:56:59;27.90;99.90
31391;DHT22;18022;45.492;11.548;2023-07-20T08:59:27;28.00;99.90
31391;DHT22;18022;45.492;11.548;2023-07-20T09:01:55;28.20;99.90
31391;DHT22;18022;45.492;11.548;2023-07-20T09:04:22;28.40;99.90
31391;DHT22;18022;45.492;11.548;2023-07-20T09:06:49;28.40;99.90
31391;DHT22;18022;45.492;11.548;2023-07-20T09:09:15;28.30;99.90
31391;DHT22;18022;45.492;11.548;2023-07-20T09:11:41;28.40;99.90
31391;DHT22;18022;45.492;11.548;2023-07-20T09:14:08;28.50;99.90
31391;DHT22;18022;45.492;11.548;2023-07-20T09:16:52;28.60;99.90
31391;DHT22;18022;45.492;11.548;2023-07-20T09:19:18;28.80;99.90
31391;DHT22;18022;45.492;11.548;2023-07-20T09:21:48;28.70;99.90
31391;DHT22;18022;45.492;11.548;2023-07-20T09:24:15;28.60;99.90
31391;DHT22;18022;45.492;11.548;2023-07-20T09:26:42;28.70;99.90
31391;DHT22;18022;45.492;11.548;2023-07-20T09:29:08;28.60;99.90
31391;DHT22;18022;45.492;11.548;2023-07-20T09:31:35;28.70;99.90
31391;DHT22;18022;45.492;11.548;2023-07-20T09:34:01;29.10;99.90
31391;DHT22;18022;45.492;11.548;2023-07-20T09:36:27;29.10;99.90
31391;DHT22;18022;45.492;11.548;2023-07-20T09:38:53;29.30;99.90
31391;DHT22;18022;45.492;11.548;2023-07-20T09:41:21;29.30;99.90
31391;DHT22;18022;45.492;11.548;2023-07-20T09:43:47;29.40;99.90
31391;DHT22;18022;45.492;11.548;2023-07-20T09:46:13;29.40;99.90
31391;DHT22;18022;45.492;11.548;2023-07-20T09:48:39;29.40;99.90
31391;DHT22;18022;45.492;11.548;2023-07-20T09:51:07;29.40;99.90
31391;DHT22;18022;45.492;11.548;2023-07-20T09:53:33;29.60;99.90
31391;DHT22;18022;45.492;11.548;2023-07-20T09:56:00;29.70;98.60
31391;DHT22;18022;45.492;11.548;2023-07-20T09:58:26;29.50;98.00
31391;DHT22;18022;45.492;11.548;2023-07-20T10:00:55;29.50;99.40
31391;DHT22;18022;45.492;11.548;2023-07-20T10:03:27;29.70;99.90
31391;DHT22;18022;45.492;11.548;2023-07-20T10:06:02;29.60;99.50
31391;DHT22;18022;45.492;11.548;2023-07-20T10:08:30;29.60;99.10
31391;DHT22;18022;45.492;11.548;2023-07-20T10:10:59;29.60;99.40
31391;DHT22;18022;45.492;11.548;2023-07-20T10:13:29;29.70;99.90
31391;DHT22;18022;45.492;11.548;2023-07-20T10:16:10;29.90;99.30
31391;DHT22;18022;45.492;11.548;2023-07-20T10:21:20;30.20;99.70
31391;DHT22;18022;45.492;11.548;2023-07-20T10:23:48;30.00;99.40
31391;DHT22;18022;45.492;11.548;2023-07-20T10:26:14;30.00;99.90
31391;DHT22;18022;45.492;11.548;2023-07-20T10:28:41;30.00;98.90
31391;DHT22;18022;45.492;11.548;2023-07-20T10:31:11;30.00;99.20
31391;DHT22;18022;45.492;11.548;2023-07-20T10:33:38;29.90;98.50
31391;DHT22;18022;45.492;11.548;2023-07-20T10:36:05;30.00;97.70
31391;DHT22;18022;45.492;11.548;2023-07-20T10:41:21;30.20;97.90
31391;DHT22;18022;45.492;11.548;2023-07-20T10:43:50;30.00;98.70
31391;DHT22;18022;45.492;11.548;2023-07-20T10:49:06;30.30;97.60
31391;DHT22;18022;45.492;11.548;2023-07-20T10:51:46;30.20;98.50
31391;DHT22;18022;45.492;11.548;2023-07-20T10:56:43;30.30;98.70
31391;DHT22;18022;45.492;11.548;2023-07-20T11:01:56;30.60;97.40
31391;DHT22;18022;45.492;11.548;2023-07-20T11:04:42;30.70;98.20
31391;DHT22;18022;45.492;11.548;2023-07-20T11:07:08;31.10;98.70
31391;DHT22;18022;45.492;11.548;2023-07-20T11:09:35;31.30;99.60
31391;DHT22;18022;45.492;11.548;2023-07-20T11:12:14;31.30;97.50
31391;DHT22;18022;45.492;11.548;2023-07-20T11:17:18;31.20;97.00
31391;DHT22;18022;45.492;11.548;2023-07-20T11:19:48;31.20;98.00
31391;DHT22;18022;45.492;11.548;2023-07-20T11:22:16;31.40;97.60
31391;DHT22;18022;45.492;11.548;2023-07-20T11:24:42;31.40;95.90
31391;DHT22;18022;45.492;11.548;2023-07-20T11:27:08;31.40;95.20
31391;DHT22;18022;45.492;11.548;2023-07-20T11:29:35;31.50;95.80
31391;DHT22;18022;45.492;11.548;2023-07-20T11:32:02;31.50;94.70
31391;DHT22;18022;45.492;11.548;2023-07-20T11:34:30;31.60;94.70
31391;DHT22;18022;45.492;11.548;2023-07-20T11:36:56;31.60;95.00
31391;DHT22;18022;45.492;11.548;2023-07-20T11:39:23;31.80;94.60
31391;DHT22;18022;45.492;11.548;2023-07-20T11:41:52;31.70;93.80
31391;DHT22;18022;45.492;11.548;2023-07-20T11:44:20;31.70;94.90
31391;DHT22;18022;45.492;11.548;2023-07-20T11:49:29;32.10;94.70
31391;DHT22;18022;45.492;11.548;2023-07-20T11:51:55;32.20;94.50
31391;DHT22;18022;45.492;11.548;2023-07-20T11:54:22;32.20;95.00
31391;DHT22;18022;45.492;11.548;2023-07-20T11:56:48;32.40;94.90
31391;DHT22;18022;45.492;11.548;2023-07-20T11:59:14;32.30;94.50
31391;DHT22;18022;45.492;11.548;2023-07-20T12:01:39;32.10;95.60
31391;DHT22;18022;45.492;11.548;2023-07-20T12:04:06;32.10;95.60
31391;DHT22;18022;45.492;11.548;2023-07-20T12:06:32;32.10;96.40
31391;DHT22;18022;45.492;11.548;2023-07-20T12:08:59;32.00;95.40
31391;DHT22;18022;45.492;11.548;2023-07-20T12:11:38;32.10;94.00
31391;DHT22;18022;45.492;11.548;2023-07-20T12:14:08;31.70;94.10
31391;DHT22;18022;45.492;11.548;2023-07-20T12:16:36;31.60;94.30
31391;DHT22;18022;45.492;11.548;2023-07-20T12:19:02;31.60;95.10
31391;DHT22;18022;45.492;11.548;2023-07-20T12:21:29;31.70;95.70
31391;DHT22;18022;45.492;11.548;2023-07-20T12:23:56;31.70;95.00
31391;DHT22;18022;45.492;11.548;2023-07-20T12:26:22;31.90;95.90
31391;DHT22;18022;45.492;11.548;2023-07-20T12:28:49;32.10;96.80
31391;DHT22;18022;45.492;11.548;2023-07-20T12:31:15;32.30;96.00
31391;DHT22;18022;45.492;11.548;2023-07-20T12:33:41;32.40;96.00
31391;DHT22;18022;45.492;11.548;2023-07-20T12:36:08;32.30;96.00
31391;DHT22;18022;45.492;11.548;2023-07-20T12:38:34;32.20;96.20
31391;DHT22;18022;45.492;11.548;2023-07-20T12:41:02;32.30;96.90
31391;DHT22;18022;45.492;11.548;2023-07-20T12:43:29;32.40;95.40
31391;DHT22;18022;45.492;11.548;2023-07-20T12:45:55;32.40;94.80
31391;DHT22;18022;45.492;11.548;2023-07-20T12:48:21;32.50;96.00
31391;DHT22;18022;45.492;11.548;2023-07-20T12:50:47;32.10;93.70
31391;DHT22;18022;45.492;11.548;2023-07-20T12:53:13;32.00;94.50
31391;DHT22;18022;45.492;11.548;2023-07-20T12:55:39;31.90;95.10
31391;DHT22;18022;45.492;11.548;2023-07-20T12:58:06;31.90;95.00
31391;DHT22;18022;45.492;11.548;2023-07-20T13:00:32;31.90;93.70
31391;DHT22;18022;45.492;11.548;2023-07-20T13:02:57;31.80;93.40
31391;DHT22;18022;45.492;11.548;2023-07-20T13:05:24;31.70;93.30
31391;DHT22;18022;45.492;11.548;2023-07-20T13:07:50;31.70;93.50
31391;DHT22;18022;45.492;11.548;2023-07-20T13:10:15;31.80;94.40
31391;DHT22;18022;45.492;11.548;2023-07-20T13:12:41;32.10;94.10
31391;DHT22;18022;45.492;11.548;2023-07-20T13:15:08;32.20;95.70
31391;DHT22;18022;45.492;11.548;2023-07-20T13:17:38;32.30;95.20
31391;DHT22;18022;45.492;11.548;2023-07-20T13:20:06;32.30;95.10
31391;DHT22;18022;45.492;11.548;2023-07-20T13:22:33;32.30;95.80
31391;DHT22;18022;45.492;11.548;2023-07-20T13:25:00;32.30;95.20
31391;DHT22;18022;45.492;11.548;2023-07-20T13:27:26;32.40;96.20
31391;DHT22;18022;45.492;11.548;2023-07-20T13:29:52;32.40;94.30
31391;DHT22;18022;45.492;11.548;2023-07-20T13:32:18;32.50;93.90
31391;DHT22;18022;45.492;11.548;2023-07-20T13:34:44;32.60;93.70
31391;DHT22;18022;45.492;11.548;2023-07-20T13:37:13;32.50;93.30
31391;DHT22;18022;45.492;11.548;2023-07-20T13:39:39;32.50;93.70
31391;DHT22;18022;45.492;11.548;2023-07-20T13:42:05;32.50;94.70
31391;DHT22;18022;45.492;11.548;2023-07-20T13:44:32;32.50;95.20
31391;DHT22;18022;45.492;11.548;2023-07-20T13:46:57;32.60;94.30
31391;DHT22;18022;45.492;11.548;2023-07-20T13:49:24;32.60;94.30
31391;DHT22;18022;45.492;11.548;2023-07-20T13:51:50;32.60;95.00
31391;DHT22;18022;45.492;11.548;2023-07-20T13:54:15;32.50;95.20
31391;DHT22;18022;45.492;11.548;2023-07-20T13:56:41;32.50;95.00
31391;DHT22;18022;45.492;11.548;2023-07-20T13:59:07;32.50;95.30
31391;DHT22;18022;45.492;11.548;2023-07-20T14:01:33;32.60;93.80
31391;DHT22;18022;45.492;11.548;2023-07-20T14:04:00;32.50;94.00
31391;DHT22;18022;45.492;11.548;2023-07-20T14:06:26;32.50;95.80
31391;DHT22;18022;45.492;11.548;2023-07-20T14:08:52;32.30;94.10
31391;DHT22;18022;45.492;11.548;2023-07-20T14:11:18;32.40;94.70
31391;DHT22;18022;45.492;11.548;2023-07-20T14:13:44;32.50;94.50
31391;DHT22;18022;45.492;11.548;2023-07-20T14:16:10;32.60;94.80
31391;DHT22;18022;45.492;11.548;2023-07-20T14:18:36;32.60;95.20
31391;DHT22;18022;45.492;11.548;2023-07-20T14:21:02;32.50;95.30
31391;DHT22;18022;45.492;11.548;2023-07-20T14:23:29;32.40;95.20
31391;DHT22;18022;45.492;11.548;2023-07-20T14:25:55;32.40;94.60
31391;DHT22;18022;45.492;11.548;2023-07-20T14:28:21;32.40;94.90
31391;DHT22;18022;45.492;11.548;2023-07-20T14:30:46;32.20;92.70
31391;DHT22;18022;45.492;11.548;2023-07-20T14:33:12;32.10;93.90
31391;DHT22;18022;45.492;11.548;2023-07-20T14:35:38;32.30;95.30
31391;DHT22;18022;45.492;11.548;2023-07-20T14:38:04;32.40;95.10
31391;DHT22;18022;45.492;11.548;2023-07-20T14:40:29;32.40;95.30
31391;DHT22;18022;45.492;11.548;2023-07-20T14:42:58;32.40;96.30
31391;DHT22;18022;45.492;11.548;2023-07-20T14:45:27;32.30;94.70
31391;DHT22;18022;45.492;11.548;2023-07-20T14:47:53;32.40;95.30
31391;DHT22;18022;45.492;11.548;2023-07-20T14:50:22;32.40;96.10
31391;DHT22;18022;45.492;11.548;2023-07-20T14:52:48;32.20;95.70
31391;DHT22;18022;45.492;11.548;2023-07-20T14:55:15;32.20;94.70
31391;DHT22;18022;45.492;11.548;2023-07-20T14:57:40;32.10;93.60
31391;DHT22;18022;45.492;11.548;2023-07-20T15:00:06;32.20;94.10
31391;DHT22;18022;45.492;11.548;2023-07-20T15:02:39;32.30;94.60
31391;DHT22;18022;45.492;11.548;2023-07-20T15:05:09;32.40;94.60
31391;DHT22;18022;45.492;11.548;2023-07-20T15:07:35;32.60;94.60
31391;DHT22;18022;45.492;11.548;2023-07-20T15:10:01;32.50;93.20
31391;DHT22;18022;45.492;11.548;2023-07-20T15:12:27;32.40;94.10
31391;DHT22;18022;45.492;11.548;2023-07-20T15:15:04;32.40;94.40
31391;DHT22;18022;45.492;11.548;2023-07-20T15:17:32;32.30;94.20
31391;DHT22;18022;45.492;11.548;2023-07-20T15:19:57;32.30;95.00
31391;DHT22;18022;45.492;11.548;2023-07-20T15:22:24;32.30;94.60
31391;DHT22;18022;45.492;11.548;2023-07-20T15:24:49;32.30;94.60
31391;DHT22;18022;45.492;11.548;2023-07-20T15:27:15;32.30;93.40
31391;DHT22;18022;45.492;11.548;2023-07-20T15:29:41;32.30;95.20
31391;DHT22;18022;45.492;11.548;2023-07-20T15:32:07;32.20;94.10
31391;DHT22;18022;45.492;11.548;2023-07-20T15:34:34;32.30;93.70
31391;DHT22;18022;45.492;11.548;2023-07-20T15:36:59;32.30;94.50
31391;DHT22;18022;45.492;11.548;2023-07-20T15:39:25;32.20;93.40
31391;DHT22;18022;45.492;11.548;2023-07-20T15:41:51;32.30;94.00
31391;DHT22;18022;45.492;11.548;2023-07-20T15:44:17;32.40;93.90
31391;DHT22;18022;45.492;11.548;2023-07-20T15:46:47;32.30;94.00